createdAt,value
2022-12-08T00:00:27.720Z,968.41
2022-12-08T00:01:27.700Z,968.47
2022-12-08T00:02:27.856Z,968.42
2022-12-08T00:03:27.853Z,968.43
2022-12-08T00:04:27.649Z,968.41
2022-12-08T00:05:27.625Z,968.37
2022-12-08T00:06:27.610Z,968.35
2022-12-08T00:07:27.587Z,968.38
2022-12-08T00:08:27.656Z,968.36
2022-12-08T00:09:29.091Z,968.36
2022-12-08T00:10:48.364Z,968.36
2022-12-08T00:11:27.513Z,968.35
2022-12-08T00:12:27.498Z,968.37
2022-12-08T00:13:27.477Z,968.38
2022-12-08T00:14:27.477Z,968.35
2022-12-08T00:15:27.440Z,968.34
2022-12-08T00:16:27.489Z,968.35
2022-12-08T00:17:27.402Z,968.31
2022-12-08T00:18:27.386Z,968.32
2022-12-08T00:19:27.364Z,968.25
2022-12-08T00:20:27.351Z,968.24
2022-12-08T00:21:27.334Z,968.26
2022-12-08T00:22:27.312Z,968.22
2022-12-08T00:23:27.291Z,968.18
2022-12-08T00:24:27.275Z,968.24
2022-12-08T00:25:27.254Z,968.21
2022-12-08T00:26:27.241Z,968.21
2022-12-08T00:27:27.217Z,968.22
2022-12-08T00:28:27.211Z,968.20
2022-12-08T00:29:27.180Z,968.22
2022-12-08T00:30:27.188Z,968.22
2022-12-08T00:31:27.206Z,968.18
2022-12-08T00:32:27.128Z,968.16
2022-12-08T00:33:27.106Z,968.12
2022-12-08T00:34:27.090Z,968.10
2022-12-08T00:35:27.069Z,968.13
2022-12-08T00:36:27.052Z,968.12
2022-12-08T00:37:27.031Z,968.12
2022-12-08T00:38:27.065Z,968.11
2022-12-08T00:39:26.995Z,968.13
2022-12-08T00:40:26.979Z,968.14
2022-12-08T00:41:26.958Z,968.11
2022-12-08T00:42:26.943Z,968.14
2022-12-08T00:43:26.919Z,968.11
2022-12-08T00:44:26.904Z,968.12
2022-12-08T00:45:26.883Z,968.13
2022-12-08T00:46:26.918Z,968.11
2022-12-08T00:47:26.847Z,968.11
2022-12-08T00:48:26.832Z,968.13
2022-12-08T00:49:26.812Z,968.16
2022-12-08T00:50:26.794Z,968.10
2022-12-08T00:51:26.772Z,968.07
2022-12-08T00:52:26.760Z,968.07
2022-12-08T00:53:26.737Z,968.05
2022-12-08T00:54:26.721Z,968.08
2022-12-08T00:55:26.700Z,968.06
2022-12-08T00:56:26.683Z,968.06
2022-12-08T00:57:26.663Z,968.07
2022-12-08T00:58:26.650Z,968.09
2022-12-08T00:59:26.625Z,968.07
2022-12-08T01:00:26.614Z,968.04
2022-12-08T01:01:26.737Z,968.05
2022-12-08T01:02:26.594Z,968.02
2022-12-08T01:03:26.620Z,968.02
2022-12-08T01:04:26.538Z,968.05
2022-12-08T01:05:26.516Z,968.03
2022-12-08T01:06:26.500Z,968.03
2022-12-08T01:07:26.479Z,968.06
2022-12-08T01:08:26.562Z,967.98
2022-12-08T01:09:26.442Z,968.02
2022-12-08T01:10:26.427Z,968.00
2022-12-08T01:11:26.405Z,968.01
2022-12-08T01:12:26.390Z,968.00
2022-12-08T01:13:26.374Z,968.03
2022-12-08T01:14:26.354Z,967.99
2022-12-08T01:15:26.362Z,968.00
2022-12-08T01:16:26.485Z,968.01
2022-12-08T01:17:26.305Z,967.96
2022-12-08T01:18:26.302Z,968.02
2022-12-08T01:19:26.260Z,967.98
2022-12-08T01:20:26.245Z,967.96
2022-12-08T01:21:26.249Z,968.00
2022-12-08T01:22:26.209Z,968.00
2022-12-08T01:23:26.187Z,967.96
2022-12-08T01:24:26.173Z,967.98
2022-12-08T01:25:26.154Z,967.95
2022-12-08T01:26:26.136Z,967.93
2022-12-08T01:27:26.115Z,967.93
2022-12-08T01:28:26.102Z,967.92
2022-12-08T01:29:26.079Z,967.91
2022-12-08T01:30:26.155Z,967.93
2022-12-08T01:31:26.111Z,967.94
2022-12-08T01:32:26.028Z,967.96
2022-12-08T01:33:26.007Z,967.98
2022-12-08T01:34:26.010Z,967.93
2022-12-08T01:35:25.972Z,967.89
2022-12-08T01:36:25.957Z,967.86
2022-12-08T01:37:25.935Z,967.91
2022-12-08T01:38:25.918Z,967.88
2022-12-08T01:39:25.897Z,967.90
2022-12-08T01:40:25.887Z,967.87
2022-12-08T01:41:25.862Z,967.87
2022-12-08T01:42:25.846Z,967.89
2022-12-08T01:43:25.825Z,967.87
2022-12-08T01:44:25.810Z,967.87
2022-12-08T01:45:25.791Z,967.87
2022-12-08T01:46:25.881Z,967.91
2022-12-08T01:47:25.954Z,967.90
2022-12-08T01:48:25.831Z,967.86
2022-12-08T01:49:25.717Z,967.90
2022-12-08T01:50:25.718Z,967.89
2022-12-08T01:51:25.678Z,967.88
2022-12-08T01:52:25.664Z,967.86
2022-12-08T01:53:25.643Z,967.86
2022-12-08T01:54:25.627Z,967.85
2022-12-08T01:55:25.629Z,967.83
2022-12-08T01:56:25.590Z,967.82
2022-12-08T01:57:25.570Z,967.83
2022-12-08T01:58:25.558Z,967.80
2022-12-08T01:59:25.534Z,967.83
2022-12-08T02:00:25.548Z,967.80
2022-12-08T02:01:25.639Z,967.77
2022-12-08T02:02:25.535Z,967.84
2022-12-08T02:03:25.461Z,967.82
2022-12-08T02:04:25.451Z,967.83
2022-12-08T02:05:25.424Z,967.80
2022-12-08T02:06:25.426Z,967.83
2022-12-08T02:07:25.389Z,967.79
2022-12-08T02:08:25.417Z,967.77
2022-12-08T02:09:25.351Z,967.73
2022-12-08T02:10:25.369Z,967.75
2022-12-08T02:11:25.314Z,967.73
2022-12-08T02:12:25.299Z,967.70
2022-12-08T02:13:25.279Z,967.68
2022-12-08T02:14:25.266Z,967.64
2022-12-08T02:15:25.243Z,967.60
2022-12-08T02:16:25.314Z,967.66
2022-12-08T02:17:25.206Z,967.64
2022-12-08T02:18:25.192Z,967.64
2022-12-08T02:19:32.309Z,967.62
2022-12-08T02:20:25.235Z,967.62
2022-12-08T02:21:25.135Z,967.60
2022-12-08T02:22:25.138Z,967.60
2022-12-08T02:23:25.104Z,967.60
2022-12-08T02:24:25.084Z,967.58
2022-12-08T02:25:25.064Z,967.55
2022-12-08T02:26:25.048Z,967.50
2022-12-08T02:27:25.026Z,967.51
2022-12-08T02:28:25.012Z,967.53
2022-12-08T02:29:24.991Z,967.48
2022-12-08T02:30:25.094Z,967.49
2022-12-08T02:31:25.012Z,967.48
2022-12-08T02:32:24.940Z,967.48
2022-12-08T02:33:24.919Z,967.43
2022-12-08T02:34:24.899Z,967.47
2022-12-08T02:35:24.886Z,967.44
2022-12-08T02:36:24.864Z,967.42
2022-12-08T02:37:24.850Z,967.43
2022-12-08T02:38:24.866Z,967.43
2022-12-08T02:39:24.813Z,967.41
2022-12-08T02:40:24.801Z,967.39
2022-12-08T02:41:24.777Z,967.40
2022-12-08T02:42:24.760Z,967.36
2022-12-08T02:43:24.744Z,967.37
2022-12-08T02:44:24.722Z,967.35
2022-12-08T02:45:24.706Z,967.34
2022-12-08T02:46:24.711Z,967.31
2022-12-08T02:47:24.722Z,967.31
2022-12-08T02:48:24.649Z,967.30
2022-12-08T02:49:24.637Z,967.33
2022-12-08T02:50:24.615Z,967.29
2022-12-08T02:51:24.599Z,967.30
2022-12-08T02:52:24.581Z,967.24
2022-12-08T02:53:24.563Z,967.28
2022-12-08T02:54:24.570Z,967.25
2022-12-08T02:55:24.527Z,967.24
2022-12-08T02:56:24.505Z,967.18
2022-12-08T02:57:24.506Z,967.20
2022-12-08T02:58:24.470Z,967.19
2022-12-08T02:59:24.455Z,967.17
2022-12-08T03:00:24.436Z,967.14
2022-12-08T03:01:24.517Z,967.18
2022-12-08T03:02:24.499Z,967.15
2022-12-08T03:03:24.384Z,967.18
2022-12-08T03:04:24.363Z,967.14
2022-12-08T03:05:24.348Z,967.11
2022-12-08T03:06:24.328Z,967.10
2022-12-08T03:07:24.312Z,967.06
2022-12-08T03:08:24.459Z,967.08
2022-12-08T03:09:24.277Z,967.08
2022-12-08T03:10:24.276Z,967.10
2022-12-08T03:11:24.243Z,967.10
2022-12-08T03:12:24.220Z,967.09
2022-12-08T03:13:24.206Z,967.06
2022-12-08T03:14:24.184Z,967.09
2022-12-08T03:15:24.169Z,967.06
2022-12-08T03:16:24.265Z,967.03
2022-12-08T03:17:24.136Z,967.01
2022-12-08T03:18:24.114Z,966.99
2022-12-08T03:19:24.099Z,966.97
2022-12-08T03:20:24.076Z,966.96
2022-12-08T03:21:24.062Z,966.97
2022-12-08T03:22:24.048Z,966.94
2022-12-08T03:23:24.026Z,966.92
2022-12-08T03:24:24.005Z,966.89
2022-12-08T03:25:23.993Z,966.84
2022-12-08T03:26:23.992Z,966.84
2022-12-08T03:27:23.955Z,966.82
2022-12-08T03:28:23.934Z,966.84
2022-12-08T03:29:23.921Z,966.80
2022-12-08T03:30:23.898Z,966.84
2022-12-08T03:31:23.990Z,966.80
2022-12-08T03:32:23.863Z,966.80
2022-12-08T03:33:23.848Z,966.78
2022-12-08T03:34:23.825Z,966.74
2022-12-08T03:35:23.811Z,966.75
2022-12-08T03:36:23.791Z,966.73
2022-12-08T03:37:23.782Z,966.73
2022-12-08T03:38:23.755Z,966.74
2022-12-08T03:39:23.741Z,966.68
2022-12-08T03:40:23.717Z,966.66
2022-12-08T03:41:23.705Z,966.71
2022-12-08T03:42:23.706Z,966.68
2022-12-08T03:43:23.672Z,966.65
2022-12-08T03:44:23.645Z,966.64
2022-12-08T03:45:23.633Z,966.62
2022-12-08T03:47:02.946Z,966.61
2022-12-08T03:48:02.923Z,966.60
2022-12-08T03:49:02.907Z,966.57
2022-12-08T03:50:03.173Z,966.58
2022-12-08T03:51:02.872Z,966.58
2022-12-08T03:52:02.851Z,966.59
2022-12-08T03:53:02.838Z,966.58
2022-12-08T03:54:02.818Z,966.55
2022-12-08T03:55:02.798Z,966.59
2022-12-08T03:56:02.829Z,966.60
2022-12-08T03:57:02.764Z,966.58
2022-12-08T03:58:02.767Z,966.56
2022-12-08T03:59:02.727Z,966.56
2022-12-08T04:00:03.019Z,966.59
2022-12-08T04:01:02.696Z,966.56
2022-12-08T04:02:02.819Z,966.53
2022-12-08T04:03:02.689Z,966.58
2022-12-08T04:04:02.681Z,966.60
2022-12-08T04:05:02.616Z,966.60
2022-12-08T04:06:02.602Z,966.59
2022-12-08T04:07:02.582Z,966.59
2022-12-08T04:08:02.680Z,966.62
2022-12-08T04:09:02.542Z,966.61
2022-12-08T04:10:02.747Z,966.59
2022-12-08T04:11:02.507Z,966.59
2022-12-08T04:12:02.487Z,966.59
2022-12-08T04:13:02.472Z,966.54
2022-12-08T04:14:02.465Z,966.51
2022-12-08T04:15:02.432Z,966.53
2022-12-08T04:16:02.524Z,966.54
2022-12-08T04:17:02.396Z,966.49
2022-12-08T04:18:02.375Z,966.51
2022-12-08T04:19:02.359Z,966.49
2022-12-08T04:20:02.829Z,966.53
2022-12-08T04:21:02.327Z,966.46
2022-12-08T04:22:02.300Z,966.47
2022-12-08T04:23:02.287Z,966.46
2022-12-08T04:24:02.266Z,966.43
2022-12-08T04:25:02.247Z,966.43
2022-12-08T04:26:02.231Z,966.47
2022-12-08T04:27:02.212Z,966.41
2022-12-08T04:28:02.191Z,966.43
2022-12-08T04:29:02.174Z,966.45
2022-12-08T04:30:02.446Z,966.43
2022-12-08T04:31:02.214Z,966.45
2022-12-08T04:32:02.132Z,966.44
2022-12-08T04:33:02.100Z,966.46
2022-12-08T04:34:02.098Z,966.47
2022-12-08T04:35:02.063Z,966.47
2022-12-08T04:36:02.042Z,966.48
2022-12-08T04:37:02.028Z,966.43
2022-12-08T04:38:02.004Z,966.43
2022-12-08T04:39:01.988Z,966.43
2022-12-08T04:40:02.194Z,966.42
2022-12-08T04:41:01.952Z,966.44
2022-12-08T04:42:01.929Z,966.43
2022-12-08T04:43:01.913Z,966.42
2022-12-08T04:44:01.892Z,966.42
2022-12-08T04:45:01.884Z,966.40
2022-12-08T04:46:01.875Z,966.43
2022-12-08T04:47:01.884Z,966.41
2022-12-08T04:48:01.820Z,966.44
2022-12-08T04:49:01.801Z,966.44
2022-12-08T04:50:02.239Z,966.43
2022-12-08T04:51:01.780Z,966.42
2022-12-08T04:52:01.744Z,966.44
2022-12-08T04:53:01.727Z,966.45
2022-12-08T04:54:01.710Z,966.46
2022-12-08T04:55:01.690Z,966.45
2022-12-08T04:56:01.672Z,966.47
2022-12-08T04:57:01.652Z,966.50
2022-12-08T04:58:01.631Z,966.50
2022-12-08T04:59:01.616Z,966.47
2022-12-08T05:00:01.732Z,966.50
2022-12-08T05:01:01.662Z,966.49
2022-12-08T05:02:01.836Z,966.45
2022-12-08T05:03:01.665Z,966.47
2022-12-08T05:04:01.569Z,966.49
2022-12-08T05:05:01.504Z,966.45
2022-12-08T05:06:01.481Z,966.44
2022-12-08T05:07:01.472Z,966.49
2022-12-08T05:08:01.515Z,966.45
2022-12-08T05:09:01.430Z,966.39
2022-12-08T05:10:01.653Z,966.41
2022-12-08T05:11:01.393Z,966.42
2022-12-08T05:12:01.372Z,966.41
2022-12-08T05:13:01.355Z,966.39
2022-12-08T05:14:01.333Z,966.41
2022-12-08T05:15:01.321Z,966.38
2022-12-08T05:16:01.358Z,966.42
2022-12-08T05:17:06.265Z,966.41
2022-12-08T05:18:01.276Z,966.37
2022-12-08T05:19:01.246Z,966.37
2022-12-08T05:20:01.522Z,966.36
2022-12-08T05:21:01.205Z,966.39
2022-12-08T05:22:01.183Z,966.32
2022-12-08T05:23:01.170Z,966.35
2022-12-08T05:24:01.147Z,966.38
2022-12-08T05:25:01.132Z,966.35
2022-12-08T05:26:01.109Z,966.36
2022-12-08T05:27:01.096Z,966.38
2022-12-08T05:28:39.170Z,966.38
2022-12-08T05:29:01.056Z,966.31
2022-12-08T05:30:01.280Z,966.37
2022-12-08T05:31:01.019Z,966.36
2022-12-08T05:32:01.149Z,966.39
2022-12-08T05:33:00.982Z,966.36
2022-12-08T05:34:03.194Z,966.33
2022-12-08T05:35:00.946Z,966.34
2022-12-08T05:36:00.924Z,966.32
2022-12-08T05:37:00.907Z,966.34
2022-12-08T05:38:00.885Z,966.29
2022-12-08T05:39:00.871Z,966.32
2022-12-08T05:40:00.851Z,966.31
2022-12-08T05:41:00.835Z,966.29
2022-12-08T05:42:00.810Z,966.32
2022-12-08T05:43:00.794Z,966.31
2022-12-08T05:44:00.773Z,966.31
2022-12-08T05:45:00.756Z,966.29
2022-12-08T05:46:01.000Z,966.33
2022-12-08T05:47:00.720Z,966.29
2022-12-08T05:48:00.699Z,966.26
2022-12-08T05:49:00.681Z,966.25
2022-12-08T05:50:00.683Z,966.22
2022-12-08T05:51:00.693Z,966.19
2022-12-08T05:52:00.624Z,966.20
2022-12-08T05:53:00.609Z,966.19
2022-12-08T05:54:00.590Z,966.21
2022-12-08T05:55:00.575Z,966.21
2022-12-08T05:56:00.551Z,966.19
2022-12-08T05:57:00.533Z,966.18
2022-12-08T05:58:06.128Z,966.14
2022-12-08T05:59:00.497Z,966.18
2022-12-08T06:00:00.525Z,966.20
2022-12-08T06:01:00.458Z,966.16
2022-12-08T06:02:00.563Z,966.18
2022-12-08T06:03:00.580Z,966.18
2022-12-08T06:04:00.400Z,966.16
2022-12-08T06:05:00.389Z,966.15
2022-12-08T06:06:00.384Z,966.14
2022-12-08T06:07:00.350Z,966.17
2022-12-08T06:08:00.373Z,966.14
2022-12-08T06:09:00.309Z,966.16
2022-12-08T06:10:00.293Z,966.17
2022-12-08T06:11:00.275Z,966.22
2022-12-08T06:12:00.252Z,966.24
2022-12-08T06:13:00.234Z,966.22
2022-12-08T06:14:00.217Z,966.25
2022-12-08T06:15:00.202Z,966.26
2022-12-08T06:16:00.177Z,966.27
2022-12-08T06:17:00.276Z,966.25
2022-12-08T06:18:00.140Z,966.27
2022-12-08T06:19:00.123Z,966.28
2022-12-08T06:20:00.131Z,966.28
2022-12-08T06:21:00.087Z,966.32
2022-12-08T06:22:00.089Z,966.32
2022-12-08T06:23:00.051Z,966.29
2022-12-08T06:24:00.033Z,966.27
2022-12-08T06:25:00.013Z,966.30
2022-12-08T06:25:59.991Z,966.27
2022-12-08T06:26:59.976Z,966.30
2022-12-08T06:27:59.955Z,966.29
2022-12-08T06:28:59.938Z,966.29
2022-12-08T06:29:59.919Z,966.31
2022-12-08T06:30:59.903Z,966.33
2022-12-08T06:31:59.917Z,966.31
2022-12-08T06:32:59.866Z,966.34
2022-12-08T06:33:59.843Z,966.34
2022-12-08T06:34:59.827Z,966.34
2022-12-08T06:35:59.807Z,966.35
2022-12-08T06:36:59.800Z,966.33
2022-12-08T06:37:59.790Z,966.28
2022-12-08T06:38:59.757Z,966.34
2022-12-08T06:39:59.732Z,966.30
2022-12-08T06:40:59.717Z,966.30
2022-12-08T06:41:59.696Z,966.31
2022-12-08T06:42:59.680Z,966.29
2022-12-08T06:43:59.658Z,966.26
2022-12-08T06:44:59.644Z,966.28
2022-12-08T06:45:59.708Z,966.27
2022-12-08T06:46:59.609Z,966.29
2022-12-08T06:47:59.587Z,966.33
2022-12-08T06:48:59.571Z,966.29
2022-12-08T06:49:59.550Z,966.30
2022-12-08T06:50:59.533Z,966.32
2022-12-08T06:51:59.512Z,966.31
2022-12-08T06:53:05.111Z,966.31
2022-12-08T06:53:59.635Z,966.31
2022-12-08T06:54:59.459Z,966.32
2022-12-08T06:56:00.054Z,966.32
2022-12-08T06:56:59.423Z,966.31
2022-12-08T06:57:59.529Z,966.31
2022-12-08T06:58:59.387Z,966.30
2022-12-08T06:59:59.367Z,966.35
2022-12-08T07:00:59.399Z,966.33
2022-12-08T07:01:59.390Z,966.31
2022-12-08T07:02:59.379Z,966.33
2022-12-08T07:03:59.293Z,966.32
2022-12-08T07:04:59.275Z,966.30
2022-12-08T07:06:03.720Z,966.30
2022-12-08T07:06:59.239Z,966.25
2022-12-08T07:07:59.335Z,966.25
2022-12-08T07:08:59.211Z,966.33
2022-12-08T07:09:59.307Z,966.33
2022-12-08T07:10:59.169Z,966.35
2022-12-08T07:11:59.145Z,966.32
2022-12-08T07:12:59.130Z,966.32
2022-12-08T07:13:59.109Z,966.38
2022-12-08T07:14:59.092Z,966.39
2022-12-08T07:15:59.073Z,966.40
2022-12-08T07:16:59.125Z,966.39
2022-12-08T07:18:00.276Z,966.34
2022-12-08T07:18:59.018Z,966.31
2022-12-08T07:19:58.998Z,966.30
2022-12-08T07:20:58.982Z,966.31
2022-12-08T07:21:58.960Z,966.26
2022-12-08T07:22:58.949Z,966.29
2022-12-08T07:23:58.924Z,966.30
2022-12-08T07:24:58.908Z,966.35
2022-12-08T07:25:58.909Z,966.36
2022-12-08T07:26:58.872Z,966.35
2022-12-08T07:27:58.850Z,966.32
2022-12-08T07:28:58.834Z,966.29
2022-12-08T07:29:58.813Z,966.31
2022-12-08T07:30:58.861Z,966.30
2022-12-08T07:31:58.778Z,966.37
2022-12-08T07:32:58.761Z,966.41
2022-12-08T07:33:58.739Z,966.34
2022-12-08T07:34:58.723Z,966.35
2022-12-08T07:35:58.703Z,966.33
2022-12-08T07:36:58.687Z,966.32
2022-12-08T07:37:58.666Z,966.37
2022-12-08T07:38:58.652Z,966.38
2022-12-08T07:39:58.631Z,966.35
2022-12-08T07:40:58.616Z,966.35
2022-12-08T07:41:58.611Z,966.33
2022-12-08T07:42:58.578Z,966.32
2022-12-08T07:43:58.560Z,966.35
2022-12-08T07:44:58.541Z,966.32
2022-12-08T07:45:58.661Z,966.30
2022-12-08T07:46:58.504Z,966.27
2022-12-08T07:47:58.484Z,966.26
2022-12-08T07:48:58.468Z,966.25
2022-12-08T07:49:58.449Z,966.23
2022-12-08T07:50:58.432Z,966.24
2022-12-08T07:51:58.415Z,966.26
2022-12-08T07:52:58.397Z,966.14
2022-12-08T07:53:58.379Z,966.17
2022-12-08T07:54:58.358Z,966.18
2022-12-08T07:55:58.337Z,966.18
2022-12-08T07:56:58.323Z,966.14
2022-12-08T07:57:58.338Z,966.17
2022-12-08T07:58:58.285Z,966.14
2022-12-08T07:59:58.265Z,966.12
2022-12-08T08:00:58.408Z,966.14
2022-12-08T08:02:22.382Z,966.13
2022-12-08T08:02:58.315Z,966.13
2022-12-08T08:03:58.195Z,966.12
2022-12-08T08:04:58.293Z,966.11
2022-12-08T08:05:58.159Z,966.08
2022-12-08T08:06:58.136Z,966.11
2022-12-08T08:07:58.165Z,966.12
2022-12-08T08:08:58.102Z,966.14
2022-12-08T08:09:58.088Z,966.13
2022-12-08T08:10:58.066Z,966.12
2022-12-08T08:12:29.069Z,966.10
2022-12-08T08:12:58.028Z,966.12
2022-12-08T08:13:58.073Z,966.10
2022-12-08T08:14:58.007Z,966.14
2022-12-08T08:15:58.091Z,966.15
2022-12-08T08:16:58.063Z,966.13
2022-12-08T08:17:57.941Z,966.11
2022-12-08T08:18:57.920Z,966.09
2022-12-08T08:19:57.908Z,966.12
2022-12-08T08:20:58.145Z,966.08
2022-12-08T08:21:57.869Z,966.13
2022-12-08T08:22:57.848Z,966.18
2022-12-08T08:23:57.835Z,966.19
2022-12-08T08:24:57.812Z,966.20
2022-12-08T08:25:57.797Z,966.18
2022-12-08T08:26:57.779Z,966.22
2022-12-08T08:27:57.764Z,966.20
2022-12-08T08:28:57.741Z,966.15
2022-12-08T08:29:57.744Z,966.17
2022-12-08T08:30:57.766Z,966.14
2022-12-08T08:31:57.691Z,966.12
2022-12-08T08:32:57.670Z,966.13
2022-12-08T08:33:57.673Z,966.17
2022-12-08T08:34:57.633Z,966.18
2022-12-08T08:35:57.619Z,966.15
2022-12-08T08:36:57.659Z,966.17
2022-12-08T08:37:57.584Z,966.20
2022-12-08T08:38:57.561Z,966.22
2022-12-08T08:39:57.547Z,966.13
2022-12-08T08:40:57.525Z,966.11
2022-12-08T08:41:57.511Z,966.12
2022-12-08T08:42:57.488Z,966.12
2022-12-08T08:43:57.475Z,966.13
2022-12-08T08:44:57.452Z,966.08
2022-12-08T08:45:57.554Z,966.11
2022-12-08T08:46:57.490Z,966.09
2022-12-08T08:47:57.403Z,966.12
2022-12-08T08:48:57.380Z,966.18
2022-12-08T08:49:57.365Z,966.16
2022-12-08T08:50:57.351Z,966.14
2022-12-08T08:51:57.332Z,966.12
2022-12-08T08:52:57.311Z,966.10
2022-12-08T08:53:57.295Z,966.11
2022-12-08T08:54:57.273Z,966.12
2022-12-08T08:55:57.260Z,966.12
2022-12-08T08:56:57.236Z,966.15
2022-12-08T08:57:57.222Z,966.12
2022-12-08T08:58:57.201Z,966.09
2022-12-08T08:59:57.187Z,966.07
2022-12-08T09:00:57.176Z,966.10
2022-12-08T09:01:57.303Z,966.06
2022-12-08T09:02:57.128Z,966.06
2022-12-08T09:03:57.209Z,966.09
2022-12-08T09:04:57.241Z,966.09
2022-12-08T09:05:57.170Z,966.07
2022-12-08T09:06:57.058Z,966.05
2022-12-08T09:08:57.026Z,966.11
2022-12-08T09:10:01.449Z,966.07
2022-12-08T09:10:56.990Z,966.10
2022-12-08T09:11:56.967Z,966.11
2022-12-08T09:12:56.956Z,966.10
2022-12-08T09:13:56.931Z,966.03
2022-12-08T09:14:56.918Z,966.05
2022-12-08T09:15:56.982Z,966.05
2022-12-08T09:16:56.882Z,966.06
2022-12-08T09:17:56.880Z,966.07
2022-12-08T09:18:56.847Z,966.06
2022-12-08T09:19:56.824Z,966.02
2022-12-08T09:20:56.810Z,965.99
2022-12-08T09:21:56.792Z,965.99
2022-12-08T09:22:56.775Z,965.94
2022-12-08T09:23:56.755Z,965.95
2022-12-08T09:24:56.738Z,965.94
2022-12-08T09:25:56.719Z,965.94
2022-12-08T09:26:56.707Z,965.95
2022-12-08T09:27:56.684Z,965.93
2022-12-08T09:28:56.671Z,965.97
2022-12-08T09:29:56.646Z,965.93
2022-12-08T09:30:56.671Z,965.99
2022-12-08T09:31:56.691Z,966.01
2022-12-08T09:32:56.597Z,965.99
2022-12-08T09:33:56.595Z,965.98
2022-12-08T09:34:56.562Z,966.00
2022-12-08T09:35:56.545Z,965.97
2022-12-08T09:36:56.528Z,965.95
2022-12-08T09:37:56.506Z,965.94
2022-12-08T09:38:56.491Z,965.96
2022-12-08T09:39:56.472Z,965.96
2022-12-08T09:40:56.461Z,965.98
2022-12-08T09:41:56.437Z,965.98
2022-12-08T09:42:56.422Z,965.95
2022-12-08T09:43:56.400Z,965.95
2022-12-08T09:44:56.385Z,965.96
2022-12-08T09:45:56.364Z,965.93
2022-12-08T09:46:56.404Z,965.89
2022-12-08T09:47:56.332Z,965.87
2022-12-08T09:48:56.316Z,965.88
2022-12-08T09:49:56.325Z,965.84
2022-12-08T09:50:56.281Z,965.87
2022-12-08T09:51:56.260Z,965.86
2022-12-08T09:52:56.246Z,965.87
2022-12-08T09:53:56.229Z,965.82
2022-12-08T09:54:56.212Z,965.79
2022-12-08T09:55:56.193Z,965.76
2022-12-08T09:56:56.176Z,965.77
2022-12-08T09:57:56.750Z,965.75
2022-12-08T09:58:56.142Z,965.70
2022-12-08T09:59:56.122Z,965.70
2022-12-08T10:00:56.106Z,965.71
2022-12-08T10:01:56.169Z,965.64
2022-12-08T10:02:56.073Z,965.65
2022-12-08T10:03:56.104Z,965.67
2022-12-08T10:04:56.149Z,965.68
2022-12-08T10:05:56.041Z,965.69
2022-12-08T10:06:56.004Z,965.66
2022-12-08T10:07:56.030Z,965.65
2022-12-08T10:08:55.970Z,965.63
2022-12-08T10:09:55.950Z,965.58
2022-12-08T10:10:55.938Z,965.55
2022-12-08T10:11:55.919Z,965.55
2022-12-08T10:12:55.901Z,965.57
2022-12-08T10:13:55.884Z,965.52
2022-12-08T10:14:55.870Z,965.53
2022-12-08T10:15:55.862Z,965.48
2022-12-08T10:16:55.897Z,965.49
2022-12-08T10:17:55.814Z,965.49
2022-12-08T10:18:55.799Z,965.54
2022-12-08T10:20:55.963Z,965.41
2022-12-08T10:21:55.768Z,965.42
2022-12-08T10:22:55.729Z,965.41
2022-12-08T10:23:55.714Z,965.40
2022-12-08T10:24:55.700Z,965.42
2022-12-08T10:25:55.682Z,965.37
2022-12-08T10:26:55.663Z,965.39
2022-12-08T10:27:55.671Z,965.37
2022-12-08T10:28:55.630Z,965.38
2022-12-08T10:29:55.614Z,965.37
2022-12-08T10:30:55.691Z,965.34
2022-12-08T10:31:55.621Z,965.31
2022-12-08T10:32:55.563Z,965.35
2022-12-08T10:33:55.548Z,965.30
2022-12-08T10:34:56.533Z,965.30
2022-12-08T10:35:55.516Z,965.30
2022-12-08T10:36:55.494Z,965.26
2022-12-08T10:37:55.512Z,965.26
2022-12-08T10:38:55.462Z,965.22
2022-12-08T10:39:55.448Z,965.17
2022-12-08T10:40:55.428Z,965.20
2022-12-08T10:41:55.415Z,965.16
2022-12-08T10:42:55.400Z,965.12
2022-12-08T10:43:55.381Z,965.13
2022-12-08T10:44:55.361Z,965.11
2022-12-08T10:45:55.348Z,965.04
2022-12-08T10:46:55.398Z,965.05
2022-12-08T10:47:55.672Z,965.05
2022-12-08T10:48:55.301Z,965.02
2022-12-08T10:49:55.281Z,965.00
2022-12-08T10:50:55.266Z,964.99
2022-12-08T10:51:55.246Z,964.93
2022-12-08T10:52:55.227Z,964.93
2022-12-08T10:53:55.236Z,964.92
2022-12-08T10:54:55.194Z,964.92
2022-12-08T10:55:55.180Z,964.87
2022-12-08T10:56:55.161Z,964.85
2022-12-08T10:57:55.147Z,964.84
2022-12-08T10:58:55.176Z,964.85
2022-12-08T10:59:55.114Z,964.83
2022-12-08T11:00:55.223Z,964.85
2022-12-08T11:01:55.260Z,964.79
2022-12-08T11:02:55.111Z,964.74
2022-12-08T11:03:55.052Z,964.76
2022-12-08T11:04:55.029Z,964.75
2022-12-08T11:05:55.015Z,964.76
2022-12-08T11:06:55.001Z,964.79
2022-12-08T11:07:55.109Z,964.78
2022-12-08T11:08:54.962Z,964.74
2022-12-08T11:09:54.972Z,964.77
2022-12-08T11:10:54.931Z,964.78
2022-12-08T11:11:54.919Z,964.74
2022-12-08T11:12:54.899Z,964.76
2022-12-08T11:13:54.885Z,964.77
2022-12-08T11:14:54.865Z,964.72
2022-12-08T11:15:54.904Z,964.70
2022-12-08T11:16:54.904Z,964.68
2022-12-08T11:17:57.717Z,964.68
2022-12-08T11:18:54.802Z,964.63
2022-12-08T11:19:54.788Z,964.61
2022-12-08T11:20:54.771Z,964.56
2022-12-08T11:21:54.759Z,964.61
2022-12-08T11:22:54.738Z,964.57
2022-12-08T11:23:54.726Z,964.52
2022-12-08T11:24:54.707Z,964.52
2022-12-08T11:25:54.737Z,964.51
2022-12-08T11:26:54.676Z,964.49
2022-12-08T11:27:54.663Z,964.53
2022-12-08T11:28:54.643Z,964.50
2022-12-08T11:29:54.632Z,964.48
2022-12-08T11:30:54.613Z,964.47
2022-12-08T11:31:54.794Z,964.49
2022-12-08T11:32:54.581Z,964.53
2022-12-08T11:33:54.568Z,964.48
2022-12-08T11:34:54.548Z,964.52
2022-12-08T11:35:54.538Z,964.46
2022-12-08T11:36:54.519Z,964.47
2022-12-08T11:38:03.043Z,964.47
2022-12-08T11:38:54.486Z,964.48
2022-12-08T11:39:54.474Z,964.46
2022-12-08T11:40:54.456Z,964.51
2022-12-08T11:41:54.465Z,964.50
2022-12-08T11:42:54.426Z,964.50
2022-12-08T11:43:54.411Z,964.45
2022-12-08T11:44:54.392Z,964.48
2022-12-08T11:45:54.476Z,964.50
2022-12-08T11:46:54.361Z,964.44
2022-12-08T11:47:56.149Z,964.44
2022-12-08T11:48:54.329Z,964.34
2022-12-08T11:49:54.317Z,964.38
2022-12-08T11:50:54.297Z,964.36
2022-12-08T11:51:54.285Z,964.28
2022-12-08T11:52:54.264Z,964.28
2022-12-08T11:53:54.253Z,964.28
2022-12-08T11:54:54.232Z,964.27
2022-12-08T11:55:54.220Z,964.21
2022-12-08T11:56:54.200Z,964.19
2022-12-08T11:57:54.285Z,964.18
2022-12-08T11:58:54.170Z,964.12
2022-12-08T11:59:54.157Z,964.13
2022-12-08T12:00:54.138Z,964.09
2022-12-08T12:01:54.201Z,964.11
2022-12-08T12:02:54.233Z,964.13
2022-12-08T12:03:54.094Z,964.13
2022-12-08T12:04:54.077Z,964.09
2022-12-08T12:06:13.075Z,964.12
2022-12-08T12:06:55.332Z,964.09
2022-12-08T12:07:54.071Z,964.08
2022-12-08T12:08:54.012Z,964.09
2022-12-08T12:09:53.998Z,964.11
2022-12-08T12:10:53.987Z,964.09
2022-12-08T12:11:53.967Z,964.07
2022-12-08T12:12:53.948Z,964.07
2022-12-08T12:13:53.959Z,964.02
2022-12-08T12:14:53.917Z,964.03
2022-12-08T12:15:53.909Z,964.03
2022-12-08T12:16:53.991Z,964.05
2022-12-08T12:17:53.873Z,964.05
2022-12-08T12:18:53.858Z,964.08
2022-12-08T12:19:53.839Z,964.06
2022-12-08T12:20:53.833Z,964.05
2022-12-08T12:21:53.809Z,964.09
2022-12-08T12:22:53.796Z,964.02
2022-12-08T12:23:53.778Z,964.00
2022-12-08T12:24:53.764Z,964.00
2022-12-08T12:25:53.767Z,963.94
2022-12-08T12:26:53.735Z,963.90
2022-12-08T12:27:57.188Z,963.85
2022-12-08T12:28:53.706Z,963.84
2022-12-08T12:29:55.983Z,963.86
2022-12-08T12:30:53.714Z,963.86